sensor_id;sensor_type;location;lat;lon;timestamp;P1;durP1;ratioP1;P2;durP2;ratioP2
9422;SDS011;65863;49.506;10.400;2024-01-11T00:00:21;26.53;;;15.83;;
9422;SDS011;65863;49.506;10.400;2024-01-11T00:03:05;25.27;;;15.33;;
9422;SDS011;65863;49.506;10.400;2024-01-11T00:05:49;30.70;;;15.57;;
9422;SDS011;65863;49.506;10.400;2024-01-11T00:08:33;25.67;;;15.17;;
9422;SDS011;65863;49.506;10.400;2024-01-11T00:11:17;23.63;;;16.17;;
9422;SDS011;65863;49.506;10.400;2024-01-11T00:14:01;26.07;;;14.87;;
9422;SDS011;65863;49.506;10.400;2024-01-11T00:16:45;23.57;;;15.50;;
9422;SDS011;65863;49.506;10.400;2024-01-11T00:19:29;29.87;;;15.40;;
9422;SDS011;65863;49.506;10.400;2024-01-11T00:22:13;23.23;;;15.00;;
9422;SDS011;65863;49.506;10.400;2024-01-11T00:24:57;27.27;;;15.50;;
9422;SDS011;65863;49.506;10.400;2024-01-11T00:27:41;26.60;;;15.80;;
9422;SDS011;65863;49.506;10.400;2024-01-11T00:30:25;27.10;;;15.60;;
9422;SDS011;65863;49.506;10.400;2024-01-11T00:33:09;24.97;;;15.50;;
9422;SDS011;65863;49.506;10.400;2024-01-11T00:35:53;35.97;;;16.40;;
9422;SDS011;65863;49.506;10.400;2024-01-11T00:38:38;27.27;;;15.63;;
9422;SDS011;65863;49.506;10.400;2024-01-11T00:41:22;26.43;;;16.70;;
9422;SDS011;65863;49.506;10.400;2024-01-11T00:44:06;27.03;;;15.70;;
9422;SDS011;65863;49.506;10.400;2024-01-11T00:46:51;25.47;;;14.87;;
9422;SDS011;65863;49.506;10.400;2024-01-11T00:49:35;24.20;;;15.67;;
9422;SDS011;65863;49.506;10.400;2024-01-11T00:52:19;24.97;;;15.60;;
9422;SDS011;65863;49.506;10.400;2024-01-11T00:55:03;24.23;;;14.80;;
9422;SDS011;65863;49.506;10.400;2024-01-11T00:57:47;24.97;;;13.50;;
9422;SDS011;65863;49.506;10.400;2024-01-11T01:00:31;24.00;;;14.17;;
9422;SDS011;65863;49.506;10.400;2024-01-11T01:03:15;25.40;;;13.87;;
9422;SDS011;65863;49.506;10.400;2024-01-11T01:06:02;25.17;;;15.17;;
9422;SDS011;65863;49.506;10.400;2024-01-11T01:08:47;24.43;;;15.03;;
9422;SDS011;65863;49.506;10.400;2024-01-11T01:11:31;24.13;;;14.93;;
9422;SDS011;65863;49.506;10.400;2024-01-11T01:14:15;22.17;;;14.23;;
9422;SDS011;65863;49.506;10.400;2024-01-11T01:16:59;21.17;;;13.60;;
9422;SDS011;65863;49.506;10.400;2024-01-11T01:19:43;30.53;;;15.63;;
9422;SDS011;65863;49.506;10.400;2024-01-11T01:22:27;22.10;;;13.23;;
9422;SDS011;65863;49.506;10.400;2024-01-11T01:25:11;23.63;;;14.70;;
9422;SDS011;65863;49.506;10.400;2024-01-11T01:27:55;25.77;;;14.10;;
9422;SDS011;65863;49.506;10.400;2024-01-11T01:30:40;26.63;;;15.57;;
9422;SDS011;65863;49.506;10.400;2024-01-11T01:33:24;25.33;;;15.37;;
9422;SDS011;65863;49.506;10.400;2024-01-11T01:36:09;27.73;;;15.40;;
9422;SDS011;65863;49.506;10.400;2024-01-11T01:38:53;28.47;;;16.60;;
9422;SDS011;65863;49.506;10.400;2024-01-11T01:41:38;29.03;;;15.73;;
9422;SDS011;65863;49.506;10.400;2024-01-11T01:44:22;29.10;;;15.47;;
9422;SDS011;65863;49.506;10.400;2024-01-11T01:47:06;26.00;;;15.00;;
9422;SDS011;65863;49.506;10.400;2024-01-11T01:49:51;25.00;;;14.80;;
9422;SDS011;65863;49.506;10.400;2024-01-11T01:52:38;25.10;;;15.10;;
9422;SDS011;65863;49.506;10.400;2024-01-11T01:55:25;25.37;;;15.70;;
9422;SDS011;65863;49.506;10.400;2024-01-11T01:58:10;24.20;;;14.27;;
9422;SDS011;65863;49.506;10.400;2024-01-11T02:00:54;24.80;;;14.33;;
9422;SDS011;65863;49.506;10.400;2024-01-11T02:03:38;24.63;;;15.43;;
9422;SDS011;65863;49.506;10.400;2024-01-11T02:06:24;25.13;;;15.23;;
9422;SDS011;65863;49.506;10.400;2024-01-11T02:09:09;26.10;;;15.87;;
9422;SDS011;65863;49.506;10.400;2024-01-11T02:11:55;28.40;;;15.00;;
9422;SDS011;65863;49.506;10.400;2024-01-11T02:14:39;28.20;;;15.67;;
9422;SDS011;65863;49.506;10.400;2024-01-11T02:17:24;25.50;;;16.00;;
9422;SDS011;65863;49.506;10.400;2024-01-11T02:20:08;26.17;;;15.80;;
9422;SDS011;65863;49.506;10.400;2024-01-11T02:22:53;24.17;;;15.93;;
9422;SDS011;65863;49.506;10.400;2024-01-11T02:25:40;26.60;;;15.90;;
9422;SDS011;65863;49.506;10.400;2024-01-11T02:28:24;28.77;;;16.20;;
9422;SDS011;65863;49.506;10.400;2024-01-11T02:31:08;33.07;;;16.40;;
9422;SDS011;65863;49.506;10.400;2024-01-11T02:33:52;31.10;;;16.07;;
9422;SDS011;65863;49.506;10.400;2024-01-11T02:36:38;26.73;;;15.77;;
9422;SDS011;65863;49.506;10.400;2024-01-11T02:39:22;28.70;;;16.43;;
9422;SDS011;65863;49.506;10.400;2024-01-11T02:42:07;26.43;;;15.97;;
9422;SDS011;65863;49.506;10.400;2024-01-11T02:44:51;27.50;;;15.17;;
9422;SDS011;65863;49.506;10.400;2024-01-11T02:47:35;27.30;;;14.93;;
9422;SDS011;65863;49.506;10.400;2024-01-11T02:50:19;21.93;;;13.60;;
9422;SDS011;65863;49.506;10.400;2024-01-11T02:53:04;28.10;;;15.30;;
9422;SDS011;65863;49.506;10.400;2024-01-11T02:55:48;28.13;;;16.47;;
9422;SDS011;65863;49.506;10.400;2024-01-11T02:58:32;25.93;;;14.83;;
9422;SDS011;65863;49.506;10.400;2024-01-11T03:01:16;22.87;;;14.70;;
9422;SDS011;65863;49.506;10.400;2024-01-11T03:04:00;28.20;;;15.03;;
9422;SDS011;65863;49.506;10.400;2024-01-11T03:06:44;28.67;;;15.07;;
9422;SDS011;65863;49.506;10.400;2024-01-11T03:09:28;22.10;;;14.57;;
9422;SDS011;65863;49.506;10.400;2024-01-11T03:12:12;26.57;;;15.23;;
9422;SDS011;65863;49.506;10.400;2024-01-11T03:14:56;26.57;;;15.13;;
9422;SDS011;65863;49.506;10.400;2024-01-11T03:17:40;24.77;;;14.83;;
9422;SDS011;65863;49.506;10.400;2024-01-11T03:20:24;26.40;;;16.80;;
9422;SDS011;65863;49.506;10.400;2024-01-11T03:23:08;26.67;;;16.50;;
9422;SDS011;65863;49.506;10.400;2024-01-11T03:25:52;25.63;;;14.87;;
9422;SDS011;65863;49.506;10.400;2024-01-11T03:28:36;25.83;;;15.67;;
9422;SDS011;65863;49.506;10.400;2024-01-11T03:31:21;28.33;;;16.43;;
9422;SDS011;65863;49.506;10.400;2024-01-11T03:34:05;25.40;;;15.63;;
9422;SDS011;65863;49.506;10.400;2024-01-11T03:36:48;27.63;;;15.53;;
9422;SDS011;65863;49.506;10.400;2024-01-11T03:39:33;33.57;;;16.53;;
9422;SDS011;65863;49.506;10.400;2024-01-11T03:42:18;26.20;;;15.07;;
9422;SDS011;65863;49.506;10.400;2024-01-11T03:45:03;26.73;;;15.77;;
9422;SDS011;65863;49.506;10.400;2024-01-11T03:47:47;27.43;;;16.00;;
9422;SDS011;65863;49.506;10.400;2024-01-11T03:50:31;26.60;;;15.70;;
9422;SDS011;65863;49.506;10.400;2024-01-11T03:53:15;27.50;;;15.73;;
9422;SDS011;65863;49.506;10.400;2024-01-11T03:55:59;25.60;;;15.53;;
9422;SDS011;65863;49.506;10.400;2024-01-11T03:58:44;26.40;;;15.03;;
9422;SDS011;65863;49.506;10.400;2024-01-11T04:01:28;23.37;;;16.07;;
9422;SDS011;65863;49.506;10.400;2024-01-11T04:04:12;29.37;;;15.40;;
9422;SDS011;65863;49.506;10.400;2024-01-11T04:06:56;24.47;;;15.07;;
9422;SDS011;65863;49.506;10.400;2024-01-11T04:09:40;29.33;;;15.23;;
9422;SDS011;65863;49.506;10.400;2024-01-11T04:12:24;26.10;;;14.67;;
9422;SDS011;65863;49.506;10.400;2024-01-11T04:15:08;26.97;;;14.93;;
9422;SDS011;65863;49.506;10.400;2024-01-11T04:17:55;26.87;;;15.60;;
9422;SDS011;65863;49.506;10.400;2024-01-11T04:20:39;26.97;;;15.40;;
9422;SDS011;65863;49.506;10.400;2024-01-11T04:23:23;28.30;;;15.40;;
9422;SDS011;65863;49.506;10.400;2024-01-11T04:26:07;25.43;;;15.03;;
9422;SDS011;65863;49.506;10.400;2024-01-11T04:28:51;29.27;;;16.20;;
9422;SDS011;65863;49.506;10.400;2024-01-11T04:31:36;26.80;;;16.30;;
9422;SDS011;65863;49.506;10.400;2024-01-11T04:34:20;27.47;;;16.00;;
9422;SDS011;65863;49.506;10.400;2024-01-11T04:37:05;31.37;;;16.87;;
9422;SDS011;65863;49.506;10.400;2024-01-11T04:39:50;31.03;;;17.50;;
9422;SDS011;65863;49.506;10.400;2024-01-11T04:42:40;32.00;;;17.67;;
9422;SDS011;65863;49.506;10.400;2024-01-11T04:45:24;31.33;;;17.60;;
9422;SDS011;65863;49.506;10.400;2024-01-11T04:48:08;30.00;;;17.10;;
9422;SDS011;65863;49.506;10.400;2024-01-11T04:50:51;31.77;;;17.70;;
9422;SDS011;65863;49.506;10.400;2024-01-11T04:53:36;29.97;;;16.33;;
9422;SDS011;65863;49.506;10.400;2024-01-11T04:56:21;25.80;;;15.17;;
9422;SDS011;65863;49.506;10.400;2024-01-11T04:59:05;26.33;;;15.50;;
9422;SDS011;65863;49.506;10.400;2024-01-11T05:01:49;29.47;;;16.77;;
9422;SDS011;65863;49.506;10.400;2024-01-11T05:04:33;27.37;;;15.77;;
9422;SDS011;65863;49.506;10.400;2024-01-11T05:07:17;31.63;;;17.67;;
9422;SDS011;65863;49.506;10.400;2024-01-11T05:10:01;29.53;;;16.27;;
9422;SDS011;65863;49.506;10.400;2024-01-11T05:12:46;29.50;;;16.30;;
9422;SDS011;65863;49.506;10.400;2024-01-11T05:15:30;27.30;;;16.70;;
9422;SDS011;65863;49.506;10.400;2024-01-11T05:18:14;29.80;;;16.93;;
9422;SDS011;65863;49.506;10.400;2024-01-11T05:20:58;27.03;;;16.53;;
9422;SDS011;65863;49.506;10.400;2024-01-11T05:23:42;31.70;;;16.63;;
9422;SDS011;65863;49.506;10.400;2024-01-11T05:26:27;31.07;;;16.40;;
9422;SDS011;65863;49.506;10.400;2024-01-11T05:29:10;27.30;;;16.43;;
9422;SDS011;65863;49.506;10.400;2024-01-11T05:31:54;28.97;;;16.63;;
9422;SDS011;65863;49.506;10.400;2024-01-11T05:34:39;28.70;;;17.43;;
9422;SDS011;65863;49.506;10.400;2024-01-11T05:37:23;30.23;;;17.90;;
9422;SDS011;65863;49.506;10.400;2024-01-11T05:40:07;30.03;;;17.90;;
9422;SDS011;65863;49.506;10.400;2024-01-11T05:42:52;29.07;;;17.73;;
9422;SDS011;65863;49.506;10.400;2024-01-11T05:45:36;34.70;;;16.73;;
9422;SDS011;65863;49.506;10.400;2024-01-11T05:48:20;27.33;;;16.93;;
9422;SDS011;65863;49.506;10.400;2024-01-11T05:51:04;30.57;;;17.77;;
9422;SDS011;65863;49.506;10.400;2024-01-11T05:53:48;28.90;;;17.43;;
9422;SDS011;65863;49.506;10.400;2024-01-11T05:56:32;29.40;;;17.03;;
9422;SDS011;65863;49.506;10.400;2024-01-11T05:59:16;26.67;;;16.00;;
9422;SDS011;65863;49.506;10.400;2024-01-11T06:02:00;31.43;;;16.53;;
9422;SDS011;65863;49.506;10.400;2024-01-11T06:04:45;25.80;;;15.63;;
9422;SDS011;65863;49.506;10.400;2024-01-11T06:07:30;29.17;;;15.57;;
9422;SDS011;65863;49.506;10.400;2024-01-11T06:10:14;28.83;;;16.70;;
9422;SDS011;65863;49.506;10.400;2024-01-11T06:12:58;28.40;;;16.37;;
9422;SDS011;65863;49.506;10.400;2024-01-11T06:15:42;25.73;;;15.40;;
9422;SDS011;65863;49.506;10.400;2024-01-11T06:18:27;26.37;;;15.80;;
9422;SDS011;65863;49.506;10.400;2024-01-11T06:21:11;26.50;;;15.37;;
9422;SDS011;65863;49.506;10.400;2024-01-11T06:23:55;28.77;;;16.30;;
9422;SDS011;65863;49.506;10.400;2024-01-11T06:26:39;26.77;;;16.73;;
9422;SDS011;65863;49.506;10.400;2024-01-11T06:29:23;26.13;;;16.17;;
9422;SDS011;65863;49.506;10.400;2024-01-11T06:32:07;32.67;;;16.83;;
9422;SDS011;65863;49.506;10.400;2024-01-11T06:34:51;33.07;;;16.80;;
9422;SDS011;65863;49.506;10.400;2024-01-11T06:37:35;27.83;;;16.60;;
9422;SDS011;65863;49.506;10.400;2024-01-11T06:40:20;31.97;;;16.80;;
9422;SDS011;65863;49.506;10.400;2024-01-11T06:43:03;25.47;;;15.77;;
9422;SDS011;65863;49.506;10.400;2024-01-11T06:45:47;29.53;;;16.07;;
9422;SDS011;65863;49.506;10.400;2024-01-11T06:48:32;28.63;;;14.97;;
9422;SDS011;65863;49.506;10.400;2024-01-11T06:51:20;25.33;;;14.87;;
9422;SDS011;65863;49.506;10.400;2024-01-11T06:54:04;32.00;;;16.63;;
9422;SDS011;65863;49.506;10.400;2024-01-11T06:56:48;33.43;;;16.63;;
9422;SDS011;65863;49.506;10.400;2024-01-11T06:59:32;27.00;;;15.90;;
9422;SDS011;65863;49.506;10.400;2024-01-11T07:02:16;29.90;;;17.50;;
9422;SDS011;65863;49.506;10.400;2024-01-11T07:05:00;27.37;;;17.07;;
9422;SDS011;65863;49.506;10.400;2024-01-11T07:07:44;25.93;;;15.40;;
9422;SDS011;65863;49.506;10.400;2024-01-11T07:10:28;28.63;;;17.13;;
9422;SDS011;65863;49.506;10.400;2024-01-11T07:13:12;28.67;;;16.77;;
9422;SDS011;65863;49.506;10.400;2024-01-11T07:16:00;29.60;;;15.50;;
9422;SDS011;65863;49.506;10.400;2024-01-11T07:18:44;32.23;;;16.57;;
9422;SDS011;65863;49.506;10.400;2024-01-11T07:21:28;32.90;;;17.33;;
9422;SDS011;65863;49.506;10.400;2024-01-11T07:24:15;25.20;;;14.97;;
9422;SDS011;65863;49.506;10.400;2024-01-11T07:26:59;28.03;;;16.33;;
9422;SDS011;65863;49.506;10.400;2024-01-11T07:29:43;26.87;;;15.43;;
9422;SDS011;65863;49.506;10.400;2024-01-11T07:32:27;28.13;;;17.43;;
9422;SDS011;65863;49.506;10.400;2024-01-11T07:35:11;29.63;;;16.23;;
9422;SDS011;65863;49.506;10.400;2024-01-11T07:37:56;30.27;;;17.37;;
9422;SDS011;65863;49.506;10.400;2024-01-11T07:40:41;32.23;;;18.90;;
9422;SDS011;65863;49.506;10.400;2024-01-11T07:43:24;37.27;;;19.67;;
9422;SDS011;65863;49.506;10.400;2024-01-11T07:46:10;30.10;;;17.97;;
9422;SDS011;65863;49.506;10.400;2024-01-11T07:48:54;32.17;;;19.27;;
9422;SDS011;65863;49.506;10.400;2024-01-11T07:51:38;37.87;;;18.80;;
9422;SDS011;65863;49.506;10.400;2024-01-11T07:54:22;31.47;;;18.27;;
9422;SDS011;65863;49.506;10.400;2024-01-11T07:57:06;31.13;;;18.47;;
9422;SDS011;65863;49.506;10.400;2024-01-11T07:59:50;33.07;;;17.37;;
9422;SDS011;65863;49.506;10.400;2024-01-11T08:02:34;30.87;;;17.57;;
9422;SDS011;65863;49.506;10.400;2024-01-11T08:05:18;30.50;;;18.70;;
9422;SDS011;65863;49.506;10.400;2024-01-11T08:08:03;32.23;;;17.90;;
9422;SDS011;65863;49.506;10.400;2024-01-11T08:10:47;28.33;;;18.30;;
9422;SDS011;65863;49.506;10.400;2024-01-11T08:13:33;28.73;;;18.87;;
9422;SDS011;65863;49.506;10.400;2024-01-11T08:16:18;29.50;;;17.77;;
9422;SDS011;65863;49.506;10.400;2024-01-11T08:19:03;27.73;;;17.17;;
9422;SDS011;65863;49.506;10.400;2024-01-11T08:21:47;28.93;;;17.97;;
9422;SDS011;65863;49.506;10.400;2024-01-11T08:24:31;25.63;;;17.30;;
9422;SDS011;65863;49.506;10.400;2024-01-11T08:27:15;35.87;;;18.87;;
9422;SDS011;65863;49.506;10.400;2024-01-11T08:30:00;27.37;;;17.97;;
9422;SDS011;65863;49.506;10.400;2024-01-11T08:32:45;29.67;;;18.47;;
9422;SDS011;65863;49.506;10.400;2024-01-11T08:35:29;32.50;;;18.03;;
9422;SDS011;65863;49.506;10.400;2024-01-11T08:38:15;29.47;;;17.70;;
9422;SDS011;65863;49.506;10.400;2024-01-11T08:40:59;32.57;;;18.27;;
9422;SDS011;65863;49.506;10.400;2024-01-11T08:43:43;34.10;;;18.63;;
9422;SDS011;65863;49.506;10.400;2024-01-11T08:46:28;32.23;;;18.57;;
9422;SDS011;65863;49.506;10.400;2024-01-11T08:49:14;32.77;;;18.67;;
9422;SDS011;65863;49.506;10.400;2024-01-11T08:51:58;30.57;;;18.00;;
9422;SDS011;65863;49.506;10.400;2024-01-11T08:54:42;31.27;;;18.63;;
9422;SDS011;65863;49.506;10.400;2024-01-11T08:57:26;29.87;;;18.13;;
9422;SDS011;65863;49.506;10.400;2024-01-11T09:00:11;32.00;;;19.73;;
9422;SDS011;65863;49.506;10.400;2024-01-11T09:02:55;33.03;;;19.33;;
9422;SDS011;65863;49.506;10.400;2024-01-11T09:05:39;28.77;;;18.77;;
9422;SDS011;65863;49.506;10.400;2024-01-11T09:08:23;33.13;;;19.70;;
9422;SDS011;65863;49.506;10.400;2024-01-11T09:11:07;28.70;;;17.60;;
9422;SDS011;65863;49.506;10.400;2024-01-11T09:13:51;33.23;;;19.57;;
9422;SDS011;65863;49.506;10.400;2024-01-11T09:16:35;27.60;;;16.93;;
9422;SDS011;65863;49.506;10.400;2024-01-11T09:19:20;28.80;;;18.37;;
9422;SDS011;65863;49.506;10.400;2024-01-11T09:22:04;28.17;;;18.10;;
9422;SDS011;65863;49.506;10.400;2024-01-11T09:24:48;29.33;;;18.20;;
9422;SDS011;65863;49.506;10.400;2024-01-11T09:27:32;31.00;;;17.37;;
9422;SDS011;65863;49.506;10.400;2024-01-11T09:30:16;36.30;;;19.27;;
9422;SDS011;65863;49.506;10.400;2024-01-11T09:33:00;34.37;;;18.90;;
9422;SDS011;65863;49.506;10.400;2024-01-11T09:35:44;33.57;;;19.57;;
9422;SDS011;65863;49.506;10.400;2024-01-11T09:38:28;31.83;;;19.00;;
9422;SDS011;65863;49.506;10.400;2024-01-11T09:41:12;31.50;;;18.37;;
9422;SDS011;65863;49.506;10.400;2024-01-11T09:43:57;24.20;;;16.30;;
9422;SDS011;65863;49.506;10.400;2024-01-11T09:46:43;27.33;;;16.60;;
9422;SDS011;65863;49.506;10.400;2024-01-11T09:49:28;24.90;;;15.43;;
9422;SDS011;65863;49.506;10.400;2024-01-11T09:52:15;21.90;;;14.80;;
9422;SDS011;65863;49.506;10.400;2024-01-11T09:55:02;23.63;;;15.80;;
9422;SDS011;65863;49.506;10.400;2024-01-11T09:57:47;24.77;;;15.50;;
9422;SDS011;65863;49.506;10.400;2024-01-11T10:00:31;25.47;;;14.83;;
9422;SDS011;65863;49.506;10.400;2024-01-11T10:03:16;29.33;;;16.90;;
9422;SDS011;65863;49.506;10.400;2024-01-11T10:06:01;28.93;;;17.23;;
9422;SDS011;65863;49.506;10.400;2024-01-11T10:08:47;27.67;;;16.67;;
9422;SDS011;65863;49.506;10.400;2024-01-11T10:11:31;27.23;;;17.80;;
9422;SDS011;65863;49.506;10.400;2024-01-11T10:14:15;33.43;;;20.20;;
9422;SDS011;65863;49.506;10.400;2024-01-11T10:16:59;38.93;;;19.33;;
9422;SDS011;65863;49.506;10.400;2024-01-11T10:19:43;35.93;;;19.00;;
9422;SDS011;65863;49.506;10.400;2024-01-11T10:22:27;38.67;;;22.40;;
9422;SDS011;65863;49.506;10.400;2024-01-11T10:25:13;51.07;;;28.47;;
9422;SDS011;65863;49.506;10.400;2024-01-11T10:27:59;31.40;;;18.23;;
9422;SDS011;65863;49.506;10.400;2024-01-11T10:30:45;25.57;;;16.87;;
9422;SDS011;65863;49.506;10.400;2024-01-11T10:33:30;28.83;;;18.77;;
9422;SDS011;65863;49.506;10.400;2024-01-11T10:36:13;23.13;;;15.77;;
9422;SDS011;65863;49.506;10.400;2024-01-11T10:38:59;24.83;;;14.90;;
9422;SDS011;65863;49.506;10.400;2024-01-11T10:41:50;22.03;;;14.03;;
9422;SDS011;65863;49.506;10.400;2024-01-11T10:44:35;22.70;;;15.10;;
9422;SDS011;65863;49.506;10.400;2024-01-11T10:47:21;24.40;;;15.10;;
9422;SDS011;65863;49.506;10.400;2024-01-11T10:50:08;27.77;;;16.97;;
9422;SDS011;65863;49.506;10.400;2024-01-11T10:52:56;31.03;;;17.03;;
9422;SDS011;65863;49.506;10.400;2024-01-11T10:55:42;22.03;;;14.03;;
9422;SDS011;65863;49.506;10.400;2024-01-11T10:58:28;24.80;;;16.07;;
9422;SDS011;65863;49.506;10.400;2024-01-11T11:01:13;24.17;;;15.80;;
9422;SDS011;65863;49.506;10.400;2024-01-11T11:03:58;22.50;;;15.37;;
9422;SDS011;65863;49.506;10.400;2024-01-11T11:06:43;24.20;;;14.83;;
9422;SDS011;65863;49.506;10.400;2024-01-11T11:09:28;25.20;;;15.27;;
9422;SDS011;65863;49.506;10.400;2024-01-11T11:12:14;25.70;;;17.40;;
9422;SDS011;65863;49.506;10.400;2024-01-11T11:14:59;25.07;;;16.73;;
9422;SDS011;65863;49.506;10.400;2024-01-11T11:17:45;26.47;;;15.70;;
9422;SDS011;65863;49.506;10.400;2024-01-11T11:20:30;21.67;;;13.63;;
9422;SDS011;65863;49.506;10.400;2024-01-11T11:23:15;23.87;;;15.00;;
9422;SDS011;65863;49.506;10.400;2024-01-11T11:26:05;23.63;;;15.37;;
9422;SDS011;65863;49.506;10.400;2024-01-11T11:28:53;22.20;;;14.83;;
9422;SDS011;65863;49.506;10.400;2024-01-11T11:31:42;23.20;;;14.90;;
9422;SDS011;65863;49.506;10.400;2024-01-11T11:34:40;25.87;;;15.17;;
9422;SDS011;65863;49.506;10.400;2024-01-11T11:37:29;22.47;;;14.07;;
9422;SDS011;65863;49.506;10.400;2024-01-11T11:40:13;20.90;;;14.03;;
9422;SDS011;65863;49.506;10.400;2024-01-11T11:42:57;18.40;;;12.90;;
9422;SDS011;65863;49.506;10.400;2024-01-11T11:45:41;19.17;;;13.47;;
9422;SDS011;65863;49.506;10.400;2024-01-11T11:51:20;18.80;;;13.27;;
9422;SDS011;65863;49.506;10.400;2024-01-11T11:54:05;17.90;;;12.23;;
9422;SDS011;65863;49.506;10.400;2024-01-11T11:56:53;24.53;;;14.47;;
9422;SDS011;65863;49.506;10.400;2024-01-11T11:59:38;22.10;;;14.27;;
9422;SDS011;65863;49.506;10.400;2024-01-11T12:02:23;20.10;;;13.33;;
9422;SDS011;65863;49.506;10.400;2024-01-11T12:05:09;17.27;;;12.70;;
9422;SDS011;65863;49.506;10.400;2024-01-11T12:07:52;22.33;;;13.53;;
9422;SDS011;65863;49.506;10.400;2024-01-11T12:10:37;18.97;;;13.77;;
9422;SDS011;65863;49.506;10.400;2024-01-11T12:13:23;20.43;;;13.40;;
9422;SDS011;65863;49.506;10.400;2024-01-11T12:16:08;21.60;;;13.00;;
9422;SDS011;65863;49.506;10.400;2024-01-11T12:18:52;18.77;;;12.50;;
9422;SDS011;65863;49.506;10.400;2024-01-11T12:21:36;24.00;;;13.27;;
9422;SDS011;65863;49.506;10.400;2024-01-11T12:24:20;20.73;;;11.33;;
9422;SDS011;65863;49.506;10.400;2024-01-11T12:27:07;18.40;;;11.57;;
9422;SDS011;65863;49.506;10.400;2024-01-11T12:29:52;19.10;;;12.20;;
9422;SDS011;65863;49.506;10.400;2024-01-11T12:32:36;17.60;;;12.40;;
9422;SDS011;65863;49.506;10.400;2024-01-11T12:35:20;25.07;;;13.73;;
9422;SDS011;65863;49.506;10.400;2024-01-11T12:38:05;20.10;;;12.50;;
9422;SDS011;65863;49.506;10.400;2024-01-11T12:40:49;20.70;;;12.23;;
9422;SDS011;65863;49.506;10.400;2024-01-11T12:43:33;17.40;;;11.77;;
9422;SDS011;65863;49.506;10.400;2024-01-11T12:46:18;17.67;;;12.40;;
9422;SDS011;65863;49.506;10.400;2024-01-11T12:49:02;18.17;;;12.40;;
9422;SDS011;65863;49.506;10.400;2024-01-11T12:51:46;18.03;;;12.33;;
9422;SDS011;65863;49.506;10.400;2024-01-11T12:54:31;20.07;;;12.83;;
9422;SDS011;65863;49.506;10.400;2024-01-11T12:57:20;19.63;;;12.83;;
9422;SDS011;65863;49.506;10.400;2024-01-11T13:02:55;20.53;;;12.27;;
9422;SDS011;65863;49.506;10.400;2024-01-11T13:05:39;17.00;;;12.20;;
9422;SDS011;65863;49.506;10.400;2024-01-11T13:08:23;19.03;;;12.90;;
9422;SDS011;65863;49.506;10.400;2024-01-11T13:11:07;16.33;;;11.77;;
9422;SDS011;65863;49.506;10.400;2024-01-11T13:13:51;18.27;;;12.07;;
9422;SDS011;65863;49.506;10.400;2024-01-11T13:16:35;19.70;;;12.50;;
9422;SDS011;65863;49.506;10.400;2024-01-11T13:19:19;17.87;;;12.40;;
9422;SDS011;65863;49.506;10.400;2024-01-11T13:22:03;17.87;;;12.37;;
9422;SDS011;65863;49.506;10.400;2024-01-11T13:24:47;17.70;;;12.27;;
9422;SDS011;65863;49.506;10.400;2024-01-11T13:27:31;18.07;;;11.80;;
9422;SDS011;65863;49.506;10.400;2024-01-11T13:30:15;17.67;;;12.33;;
9422;SDS011;65863;49.506;10.400;2024-01-11T13:33:00;17.80;;;12.50;;
9422;SDS011;65863;49.506;10.400;2024-01-11T13:35:44;20.37;;;12.93;;
9422;SDS011;65863;49.506;10.400;2024-01-11T13:38:28;17.60;;;12.13;;
9422;SDS011;65863;49.506;10.400;2024-01-11T13:41:13;19.43;;;12.53;;
9422;SDS011;65863;49.506;10.400;2024-01-11T13:43:57;19.30;;;11.97;;
9422;SDS011;65863;49.506;10.400;2024-01-11T13:46:41;21.30;;;12.10;;
9422;SDS011;65863;49.506;10.400;2024-01-11T13:49:25;17.90;;;12.63;;
9422;SDS011;65863;49.506;10.400;2024-01-11T13:52:09;19.83;;;12.67;;
9422;SDS011;65863;49.506;10.400;2024-01-11T13:54:53;18.60;;;12.03;;
9422;SDS011;65863;49.506;10.400;2024-01-11T13:57:38;17.87;;;12.17;;
9422;SDS011;65863;49.506;10.400;2024-01-11T14:00:22;15.83;;;11.63;;
9422;SDS011;65863;49.506;10.400;2024-01-11T14:03:06;17.40;;;11.60;;
9422;SDS011;65863;49.506;10.400;2024-01-11T14:05:52;17.60;;;11.97;;
9422;SDS011;65863;49.506;10.400;2024-01-11T14:08:37;17.07;;;11.40;;
9422;SDS011;65863;49.506;10.400;2024-01-11T14:11:20;17.23;;;11.87;;
9422;SDS011;65863;49.506;10.400;2024-01-11T14:14:05;18.43;;;11.07;;
9422;SDS011;65863;49.506;10.400;2024-01-11T14:16:50;16.47;;;11.23;;
9422;SDS011;65863;49.506;10.400;2024-01-11T14:19:35;16.33;;;11.50;;
9422;SDS011;65863;49.506;10.400;2024-01-11T14:22:19;18.30;;;13.27;;
9422;SDS011;65863;49.506;10.400;2024-01-11T14:25:03;20.10;;;13.37;;
9422;SDS011;65863;49.506;10.400;2024-01-11T14:27:48;23.37;;;14.53;;
9422;SDS011;65863;49.506;10.400;2024-01-11T14:30:32;20.13;;;13.33;;
9422;SDS011;65863;49.506;10.400;2024-01-11T14:33:16;20.93;;;13.87;;
9422;SDS011;65863;49.506;10.400;2024-01-11T14:36:02;22.90;;;14.53;;
9422;SDS011;65863;49.506;10.400;2024-01-11T14:38:47;21.77;;;14.37;;
9422;SDS011;65863;49.506;10.400;2024-01-11T14:41:31;20.17;;;13.80;;
9422;SDS011;65863;49.506;10.400;2024-01-11T14:44:15;20.77;;;13.77;;
9422;SDS011;65863;49.506;10.400;2024-01-11T14:46:59;24.07;;;15.37;;
9422;SDS011;65863;49.506;10.400;2024-01-11T14:49:43;22.33;;;14.93;;
9422;SDS011;65863;49.506;10.400;2024-01-11T14:52:27;26.83;;;17.73;;
9422;SDS011;65863;49.506;10.400;2024-01-11T14:55:12;26.80;;;17.63;;
9422;SDS011;65863;49.506;10.400;2024-01-11T14:57:56;27.07;;;18.10;;
9422;SDS011;65863;49.506;10.400;2024-01-11T15:00:41;26.53;;;15.80;;
9422;SDS011;65863;49.506;10.400;2024-01-11T15:03:25;21.60;;;14.50;;
9422;SDS011;65863;49.506;10.400;2024-01-11T15:06:09;24.23;;;13.83;;
9422;SDS011;65863;49.506;10.400;2024-01-11T15:08:53;23.53;;;14.40;;
9422;SDS011;65863;49.506;10.400;2024-01-11T15:11:37;20.93;;;14.30;;
9422;SDS011;65863;49.506;10.400;2024-01-11T15:14:24;28.23;;;18.47;;
9422;SDS011;65863;49.506;10.400;2024-01-11T15:17:08;19.97;;;13.93;;
9422;SDS011;65863;49.506;10.400;2024-01-11T15:19:52;19.50;;;12.83;;
9422;SDS011;65863;49.506;10.400;2024-01-11T15:22:36;19.53;;;13.47;;
9422;SDS011;65863;49.506;10.400;2024-01-11T15:25:20;22.23;;;13.43;;
9422;SDS011;65863;49.506;10.400;2024-01-11T15:28:04;21.33;;;13.40;;
9422;SDS011;65863;49.506;10.400;2024-01-11T15:30:48;24.17;;;14.63;;
9422;SDS011;65863;49.506;10.400;2024-01-11T15:33:32;22.80;;;14.23;;
9422;SDS011;65863;49.506;10.400;2024-01-11T15:36:16;26.67;;;14.87;;
9422;SDS011;65863;49.506;10.400;2024-01-11T15:39:00;21.07;;;14.50;;
9422;SDS011;65863;49.506;10.400;2024-01-11T15:41:45;24.47;;;14.43;;
9422;SDS011;65863;49.506;10.400;2024-01-11T15:44:30;26.77;;;19.43;;
9422;SDS011;65863;49.506;10.400;2024-01-11T15:47:17;28.50;;;18.50;;
9422;SDS011;65863;49.506;10.400;2024-01-11T15:50:02;23.67;;;14.90;;
9422;SDS011;65863;49.506;10.400;2024-01-11T15:52:51;25.73;;;17.23;;
9422;SDS011;65863;49.506;10.400;2024-01-11T15:55:36;29.37;;;18.43;;
9422;SDS011;65863;49.506;10.400;2024-01-11T15:58:20;31.93;;;18.83;;
9422;SDS011;65863;49.506;10.400;2024-01-11T16:01:04;27.27;;;15.67;;
9422;SDS011;65863;49.506;10.400;2024-01-11T16:03:47;26.90;;;15.90;;
9422;SDS011;65863;49.506;10.400;2024-01-11T16:06:33;23.23;;;15.30;;